Airfield :
LOGIN :

Register | Disclaimer

   EN    FR    IT 

 










Legend :    VFR   Marginal VFR   IFR   Intensive IFR   Very Intensive IFR
Visi :
Ceiling :
>= 8 km
>= 3000ft
5 to 8 km
1000 to 3000 ft
1500m to 5 km
500 to 1000 ft
800 to 1500m
200 to 500 ft
< 800m
< 200 ft
Symbols :   Thunderstorms  Fog  Heavy snow  Heavy precipitations  Wind > 20 kt
SIGMETs :     Misc.  Thunderstorms  Icing  Turbulence  Mountain Waves  Volcanic Ashes







- Airport Elevation : 3 ft
- IATA code : LWR


EHLW - Leuuwarden Air Base

CURRENT METAR :
  • 102325Z AUTO 32013KT 280V350 9999 FEW015CB SCT063 05/02 Q1021 BLU

EXPIRED METARs :
  • 102315Z AUTO 31014KT 9999 FEW015CB SCT026 BKN046 06/03 Q1021 BLU
  • 102306Z AUTO 31013G23KT 280V350 9999 FEW015CB SCT023 06/03 Q1021 WHT
  • 102255Z AUTO 32013KT 290V360 9999 FEW036 06/02 Q1021 BLU
  • 102225Z AUTO 32016KT 280V360 9999 FEW028 SCT056 06/02 Q1021 BLU
  • 102155Z AUTO 33014KT 290V010 9999 FEW033 SCT066 06/02 Q1021 BLU
  • 102125Z AUTO 32014KT 290V350 9999 FEW034 06/02 Q1021 BLU
  • 102055Z AUTO 31013KT 280V340 9999 FEW015CB 06/03 Q1021 BLU
  • 102049Z AUTO 31013KT 9999 FEW015CB 05/03 Q1021 BLU

TAF TAF EHLW
Valid from the 10 at 18:00 until the 11 at 06:00 UTC


101721Z 1018/1106 32018KT 9999 SCT025 SCT045
No reported NOTAMs for that airfield.



MET'MAP, your aeronautical weather chart ! - Copyright ORBIFLY December 2007 - Disclaimer

ORBIFLY MET'MAP TEAM :

Programming & Development : Alexandra Zaïnal
Concept & Development : Baudouin d'Aumeries
Co-Development & Prog : Marc-Olivier Méhu
Technical & hardware support : Manuel Goepfert

Contact : metmap@orbifly.com




SOURCES & CREDITS :

   NOAA